Time;durP1;ratioP1;P1;durP2;ratioP2;P2;SDS_P1;SDS_P2;PMS_P1;PMS_P2;Temp;Humidity;BMP_temperature;BMP_pressure;BME280_temperature;BME280_humidity;BME280_pressure;Samples;Min_cycle;Max_cycle;Signal;HPM_P1;HPM_P2
2022/12/18 00:01:58;;;;;;;33.73;27.33;;;;;;;-0.48;100.00;97545.84;5004968;28;20215;-59
2022/12/18 00:04:25;;;;;;;34.53;28.00;;;;;;;-0.52;100.00;97554.66;5004256;28;20209;-59
2022/12/18 00:06:52;;;;;;;36.97;27.17;;;;;;;-0.47;100.00;97547.56;5004855;28;20209;-59
2022/12/18 00:09:19;;;;;;;32.83;26.37;;;;;;;-0.45;100.00;97550.94;5004303;28;20212;-59
2022/12/18 00:11:46;;;;;;;32.53;25.73;;;;;;;-0.53;100.00;97559.00;5002473;28;20202;-61
2022/12/18 00:14:14;;;;;;;32.97;26.67;;;;;;;-0.53;100.00;97568.53;5001565;28;20208;-58
2022/12/18 00:16:41;;;;;;;35.67;27.13;;;;;;;-0.58;100.00;97571.31;5001530;28;20217;-59
2022/12/18 00:19:08;;;;;;;34.73;27.90;;;;;;;-0.54;100.00;97565.13;5000467;28;20209;-60
2022/12/18 00:21:34;;;;;;;35.40;27.20;;;;;;;-0.44;100.00;97572.59;5001798;28;20259;-55
2022/12/18 00:24:01;;;;;;;34.73;27.23;;;;;;;-0.46;100.00;97577.81;5000781;28;20640;-60
2022/12/18 00:26:29;;;;;;;35.37;27.33;;;;;;;-0.46;100.00;97583.00;5001410;28;20211;-61
2022/12/18 00:28:58;;;;;;;35.10;28.63;;;;;;;-0.50;100.00;97578.84;5001592;28;20222;-61
2022/12/18 00:31:26;;;;;;;35.57;26.90;;;;;;;-0.46;100.00;97575.22;5000869;28;20209;-59
2022/12/18 00:33:55;;;;;;;36.30;28.70;;;;;;;-0.48;100.00;97577.03;5001486;28;20364;-59
2022/12/18 00:36:23;;;;;;;34.67;28.37;;;;;;;-0.51;100.00;97569.34;5001146;28;20226;-62
2022/12/18 00:38:50;;;;;;;35.67;27.77;;;;;;;-0.56;100.00;97568.66;4999898;28;20209;-65
2022/12/18 00:42:55;;;;;;;38.33;29.13;;;;;;;-0.51;100.00;97569.34;5000569;28;20227;-59
2022/12/18 00:44:05;;;;;;;35.07;28.50;;;;;;;-0.61;100.00;97570.56;5000975;28;20254;-60
2022/12/18 00:46:33;;;;;;;35.50;27.53;;;;;;;-0.57;100.00;97567.78;5001387;28;20199;-60
2022/12/18 00:49:00;;;;;;;37.47;28.63;;;;;;;-0.56;100.00;97569.50;5000909;28;20212;-62
2022/12/18 00:51:27;;;;;;;34.90;27.23;;;;;;;-0.59;100.00;97567.00;5000689;28;20217;-61
2022/12/18 00:53:53;;;;;;;36.70;27.13;;;;;;;-0.62;100.00;97574.06;5000947;28;20209;-60
2022/12/18 00:56:20;;;;;;;37.10;27.40;;;;;;;-0.59;100.00;97579.16;5008723;28;20232;-60
2022/12/18 00:58:46;;;;;;;37.10;28.53;;;;;;;-0.58;100.00;97579.13;5013278;28;20204;-60
2022/12/18 01:01:13;;;;;;;36.37;27.47;;;;;;;-0.64;100.00;97578.47;5020226;28;20202;-61
2022/12/18 01:03:41;;;;;;;36.43;28.33;;;;;;;-0.62;100.00;97582.72;5006636;28;20809;-59
2022/12/18 01:06:08;;;;;;;36.47;27.47;;;;;;;-0.59;100.00;97584.34;4984697;28;20194;-59
2022/12/18 01:08:35;;;;;;;37.83;28.00;;;;;;;-0.55;100.00;97585.94;5001914;28;20201;-60
2022/12/18 01:11:01;;;;;;;38.90;29.37;;;;;;;-0.51;100.00;97592.72;5001114;28;20224;-59
2022/12/18 01:13:28;;;;;;;38.50;29.40;;;;;;;-0.59;100.00;97594.75;5000931;28;20684;-58
2022/12/18 01:15:54;;;;;;;35.03;28.07;;;;;;;-0.54;100.00;97590.25;5003522;28;20210;-58
2022/12/18 01:18:21;;;;;;;39.50;29.43;;;;;;;-0.54;100.00;97592.84;5004714;28;20536;-60
2022/12/18 01:20:49;;;;;;;37.00;28.27;;;;;;;-0.51;100.00;97587.53;5014727;28;20205;-58
2022/12/18 01:23:15;;;;;;;38.37;27.90;;;;;;;-0.47;100.00;97590.88;5024126;28;20200;-59
2022/12/18 01:25:42;;;;;;;38.53;28.80;;;;;;;-0.49;100.00;97598.72;5026575;28;20214;-59
2022/12/18 01:28:08;;;;;;;36.30;28.37;;;;;;;-0.47;100.00;97598.66;5026035;28;20203;-61
2022/12/18 01:30:35;;;;;;;37.37;28.40;;;;;;;-0.43;100.00;97606.31;5011334;28;20217;-58
2022/12/18 01:33:01;;;;;;;35.40;27.80;;;;;;;-0.46;100.00;97605.56;5005487;28;20538;-59
2022/12/18 01:35:28;;;;;;;39.07;29.20;;;;;;;-0.46;100.00;97610.78;5005196;28;20211;-58
2022/12/18 01:37:56;;;;;;;35.87;28.03;;;;;;;-0.55;100.00;97611.91;5004929;28;20234;-59
2022/12/18 01:40:23;;;;;;;35.83;27.93;;;;;;;-0.59;100.00;97611.19;5003804;28;20226;-60
2022/12/18 01:42:51;;;;;;;37.00;28.77;;;;;;;-0.57;100.00;97608.53;5004116;28;20203;-60
2022/12/18 01:45:27;;;;;;;36.67;28.63;;;;;;;-0.56;100.00;97610.22;4995657;28;20208;-59
2022/12/18 01:47:54;;;;;;;38.77;29.00;;;;;;;-0.55;100.00;97610.19;4995546;28;20623;-59
2022/12/18 01:50:24;;;;;;;38.07;28.40;;;;;;;-0.51;100.00;97613.50;4995070;28;20222;-61
2022/12/18 01:52:53;;;;;;;37.13;29.00;;;;;;;-0.55;100.00;97620.56;4995523;28;20222;-58
2022/12/18 01:55:23;;;;;;;37.60;28.33;;;;;;;-0.53;100.00;97616.16;4994330;28;20848;-58
2022/12/18 01:57:52;;;;;;;38.43;28.80;;;;;;;-0.53;100.00;97623.09;4994801;28;20222;-58
2022/12/18 02:00:21;;;;;;;39.67;30.47;;;;;;;-0.54;100.00;97624.88;4994625;28;20621;-59
2022/12/18 02:02:48;;;;;;;35.83;28.67;;;;;;;-0.51;100.00;97624.75;4994572;28;20208;-58
2022/12/18 02:05:18;;;;;;;37.90;28.63;;;;;;;-0.49;100.00;97624.69;4994928;28;20214;-60
2022/12/18 02:07:53;;;;;;;39.50;29.97;;;;;;;-0.44;100.00;97625.41;4994878;28;20226;-59
2022/12/18 02:10:25;;;;;;;40.10;29.80;;;;;;;-0.46;100.00;97627.19;4995073;28;20209;-58
2022/12/18 02:12:58;;;;;;;39.20;29.27;;;;;;;-0.38;100.00;97627.78;4995110;28;20209;-60
2022/12/18 02:15:28;;;;;;;34.30;28.77;;;;;;;-0.42;100.00;97623.59;4994691;28;20654;-60
2022/12/18 02:17:57;;;;;;;36.10;28.77;;;;;;;-0.44;100.00;97625.41;4994246;28;20245;-59
2022/12/18 02:20:30;;;;;;;38.10;28.93;;;;;;;-0.47;100.00;97615.13;4993818;28;20652;-60
2022/12/18 02:23:05;;;;;;;39.03;29.27;;;;;;;-0.53;100.00;97604.91;4994011;28;20530;-58
2022/12/18 02:25:57;;;;;;;39.10;29.63;;;;;;;-0.52;100.00;97617.88;4993221;28;20207;-60
2022/12/18 02:28:24;;;;;;;37.60;29.10;;;;;;;-0.60;100.00;97619.00;4993388;28;20200;-59
2022/12/18 02:30:52;;;;;;;38.77;28.90;;;;;;;-0.57;100.00;97619.75;4994351;28;20215;-60
2022/12/18 02:33:20;;;;;;;39.10;30.60;;;;;;;-0.62;100.00;97620.81;4993873;28;20212;-59
2022/12/18 02:35:47;;;;;;;38.23;29.47;;;;;;;-0.61;100.00;97623.38;4993974;28;20657;-60
2022/12/18 02:38:15;;;;;;;38.03;28.93;;;;;;;-0.57;100.00;97629.31;4993609;28;20221;-59
2022/12/18 02:40:43;;;;;;;40.83;29.97;;;;;;;-0.57;100.00;97624.94;4995037;28;20218;-59
2022/12/18 02:43:12;;;;;;;42.07;29.63;;;;;;;-0.52;100.00;97623.06;4993852;28;20570;-58
2022/12/18 02:45:47;;;;;;;39.87;29.43;;;;;;;-0.58;100.00;97617.22;4994159;28;20207;-58
2022/12/18 02:48:16;;;;;;;39.60;29.80;;;;;;;-0.56;100.00;97615.41;4993579;28;20233;-60
2022/12/18 02:50:46;;;;;;;37.57;28.07;;;;;;;-0.55;100.00;97619.72;4995122;28;20432;-58
2022/12/18 02:53:18;;;;;;;40.07;28.77;;;;;;;-0.50;100.00;97617.81;4993518;28;20203;-59
2022/12/18 02:55:52;;;;;;;38.33;29.73;;;;;;;-0.45;100.00;97626.28;4992709;28;20668;-59
2022/12/18 02:58:27;;;;;;;38.53;29.50;;;;;;;-0.48;100.00;97634.19;4993251;28;20215;-58
2022/12/18 03:00:59;;;;;;;41.20;30.27;;;;;;;-0.41;100.00;97629.63;4993615;28;20209;-58
2022/12/18 03:03:30;;;;;;;38.53;28.90;;;;;;;-0.40;100.00;97626.16;4994079;28;20196;-58
2022/12/18 03:05:59;;;;;;;38.57;29.83;;;;;;;-0.45;100.00;97628.88;4993574;28;20211;-59
2022/12/18 03:08:29;;;;;;;38.80;29.63;;;;;;;-0.42;100.00;97633.97;4994203;28;20223;-60
2022/12/18 03:10:59;;;;;;;44.87;31.00;;;;;;;-0.47;100.00;97635.91;4992520;28;20209;-58
2022/12/18 03:13:30;;;;;;;42.00;30.23;;;;;;;-0.51;100.00;97634.31;5001688;28;20219;-62
2022/12/18 03:15:58;;;;;;;42.60;30.37;;;;;;;-0.47;100.00;97635.91;5006730;28;20289;-60
2022/12/18 03:18:26;;;;;;;40.00;29.73;;;;;;;-0.48;100.00;97642.00;5009734;28;20215;-60
2022/12/18 03:20:55;;;;;;;39.93;29.87;;;;;;;-0.47;100.00;97641.09;5008861;28;20216;-60
2022/12/18 03:23:24;;;;;;;41.17;29.80;;;;;;;-0.52;100.00;97653.38;5001133;28;20211;-63
2022/12/18 03:25:53;;;;;;;39.67;29.67;;;;;;;-0.57;100.00;97660.50;5000950;28;20215;-59
2022/12/18 03:28:21;;;;;;;41.77;29.73;;;;;;;-0.65;100.00;97652.94;5000705;28;20208;-60
2022/12/18 03:30:53;;;;;;;39.97;30.43;;;;;;;-0.65;100.00;97642.56;4993189;28;20239;-60
2022/12/18 03:33:22;;;;;;;39.90;29.80;;;;;;;-0.60;100.00;97650.19;4993016;28;20215;-61
2022/12/18 03:35:50;;;;;;;37.43;28.47;;;;;;;-0.53;100.00;97651.66;4993129;28;20207;-61
2022/12/18 03:38:16;;;;;;;39.07;28.63;;;;;;;-0.52;100.00;97656.84;4992925;28;20234;-60
2022/12/18 03:40:50;;;;;;;43.03;30.50;;;;;;;-0.51;100.00;97655.09;4992977;28;20212;-61
2022/12/18 03:43:21;;;;;;;40.07;28.83;;;;;;;-0.48;100.00;97647.19;4995599;28;20247;-59
2022/12/18 03:45:53;;;;;;;39.87;29.30;;;;;;;-0.48;100.00;97659.31;5002840;28;20299;-59
2022/12/18 03:48:21;;;;;;;43.77;29.27;;;;;;;-0.50;100.00;97662.00;5003508;28;20210;-59
2022/12/18 03:50:52;;;;;;;40.53;30.03;;;;;;;-0.52;100.00;97658.56;5002961;28;20217;-59
2022/12/18 03:53:29;;;;;;;42.80;30.80;;;;;;;-0.53;100.00;97664.66;5002172;28;20205;-61
2022/12/18 03:55:56;;;;;;;41.17;30.40;;;;;;;-0.52;100.00;97671.56;5002868;28;20211;-60
2022/12/18 03:58:25;;;;;;;41.17;30.57;;;;;;;-0.52;100.00;97666.38;5001769;28;20699;-59
2022/12/18 04:00:54;;;;;;;41.47;30.00;;;;;;;-0.52;100.00;97674.16;5002176;28;20202;-60
2022/12/18 04:03:21;;;;;;;39.77;29.13;;;;;;;-0.49;100.00;97679.25;5002759;28;20210;-60
2022/12/18 04:05:49;;;;;;;39.33;29.13;;;;;;;-0.52;100.00;97680.22;5001996;28;20225;-60
2022/12/18 04:08:16;;;;;;;42.73;30.33;;;;;;;-0.51;100.00;97673.28;5001839;28;20215;-59
2022/12/18 04:10:42;;;;;;;42.87;30.50;;;;;;;-0.54;100.00;97676.84;5001219;28;20218;-60
2022/12/18 04:13:09;;;;;;;41.70;30.13;;;;;;;-0.52;100.00;97684.56;5002025;28;20218;-59
2022/12/18 04:15:37;;;;;;;46.20;31.77;;;;;;;-0.55;100.00;97667.31;5002814;28;20208;-59
2022/12/18 04:18:05;;;;;;;41.97;31.00;;;;;;;-0.46;100.00;97673.94;5002052;28;20785;-61
2022/12/18 04:20:33;;;;;;;40.07;29.60;;;;;;;-0.39;100.00;97677.22;5002474;28;20219;-59
2022/12/18 04:23:00;;;;;;;39.13;28.93;;;;;;;-0.43;100.00;97673.88;5002168;28;20212;-59
2022/12/18 04:25:26;;;;;;;37.33;27.90;;;;;;;-0.36;100.00;97684.91;5001941;28;20204;-59
2022/12/18 04:27:53;;;;;;;41.57;28.87;;;;;;;-0.38;100.00;97690.16;5002390;28;20194;-58
2022/12/18 04:30:20;;;;;;;34.23;26.33;;;;;;;-0.45;100.00;97693.84;5002030;28;20218;-59
2022/12/18 04:32:46;;;;;;;31.87;23.73;;;;;;;-0.42;100.00;97695.47;5002904;28;20206;-59
2022/12/18 04:35:16;;;;;;;34.57;25.90;;;;;;;-0.44;100.00;97695.56;5002341;28;20547;-59
2022/12/18 04:37:42;;;;;;;32.77;24.87;;;;;;;-0.41;100.00;97702.38;5003618;28;20234;-59
2022/12/18 04:40:12;;;;;;;33.23;24.73;;;;;;;-0.39;100.00;97691.03;5001813;28;20200;-61
2022/12/18 04:42:39;;;;;;;32.73;24.57;;;;;;;-0.34;100.00;97698.69;5001355;28;20241;-59
2022/12/18 04:45:07;;;;;;;34.93;25.67;;;;;;;-0.31;100.00;97699.44;5001375;28;20200;-58
2022/12/18 04:47:34;;;;;;;32.37;23.80;;;;;;;-0.28;100.00;97699.31;5002401;28;20201;-60
2022/12/18 04:50:00;;;;;;;33.70;23.87;;;;;;;-0.19;100.00;97699.03;5002676;28;20213;-59
2022/12/18 04:52:28;;;;;;;32.07;24.70;;;;;;;-0.18;100.00;97705.09;5005713;28;20217;-59
2022/12/18 04:54:55;;;;;;;31.53;23.77;;;;;;;-0.21;100.00;97700.81;5005987;28;20201;-59
2022/12/18 04:57:21;;;;;;;37.27;25.93;;;;;;;-0.27;100.00;97701.03;5007135;28;20252;-59
2022/12/18 04:59:48;;;;;;;34.63;25.53;;;;;;;-0.25;100.00;97706.19;5006016;28;20565;-60
2022/12/18 05:02:14;;;;;;;36.20;26.87;;;;;;;-0.27;100.00;97700.19;5006530;28;20216;-60
2022/12/18 05:04:42;;;;;;;36.40;26.87;;;;;;;-0.32;100.00;97697.72;5017274;28;20199;-61
2022/12/18 05:07:09;;;;;;;33.90;25.17;;;;;;;-0.27;100.00;97688.03;5024776;28;20207;-59
2022/12/18 05:09:36;;;;;;;36.80;26.23;;;;;;;-0.27;100.00;97700.19;5023195;28;20200;-60
2022/12/18 05:12:03;;;;;;;34.13;26.20;;;;;;;-0.22;100.00;97693.94;5023021;28;20201;-60
2022/12/18 05:14:30;;;;;;;34.13;25.50;;;;;;;-0.27;100.00;97693.25;5022631;28;20220;-59
2022/12/18 05:16:56;;;;;;;31.80;23.37;;;;;;;-0.25;100.00;97688.00;5005836;28;20220;-60
2022/12/18 05:19:23;;;;;;;32.57;24.40;;;;;;;-0.24;100.00;97685.34;5005886;28;20237;-59
2022/12/18 05:21:49;;;;;;;33.40;25.03;;;;;;;-0.23;100.00;97697.44;5004274;28;20236;-61
2022/12/18 05:24:16;;;;;;;32.17;23.93;;;;;;;-0.28;100.00;97696.72;5005825;28;20220;-61
2022/12/18 05:26:43;;;;;;;32.70;24.20;;;;;;;-0.25;100.00;97698.41;5005543;28;20207;-59
2022/12/18 05:29:12;;;;;;;30.47;23.23;;;;;;;-0.27;100.00;97695.84;5004901;28;20199;-59
2022/12/18 05:31:38;;;;;;;31.97;24.57;;;;;;;-0.25;100.00;97694.03;5004906;28;20211;-60
2022/12/18 05:34:05;;;;;;;31.57;24.50;;;;;;;-0.24;100.00;97700.94;5005540;28;20218;-60
2022/12/18 05:36:31;;;;;;;32.40;24.60;;;;;;;-0.23;100.00;97697.44;5005246;28;20211;-60
2022/12/18 05:38:59;;;;;;;34.27;24.30;;;;;;;-0.24;100.00;97706.13;5004985;28;20222;-60
2022/12/18 05:41:26;;;;;;;32.30;24.20;;;;;;;-0.24;100.00;97711.31;5005657;28;20229;-60
2022/12/18 05:43:54;;;;;;;32.90;23.87;;;;;;;-0.27;100.00;97706.22;5010852;28;20241;-60
2022/12/18 05:46:20;;;;;;;31.07;24.07;;;;;;;-0.25;100.00;97704.41;5012870;28;20221;-61
2022/12/18 05:48:48;;;;;;;33.03;23.93;;;;;;;-0.25;100.00;97714.81;5008857;28;20229;-60
2022/12/18 05:51:15;;;;;;;34.87;25.53;;;;;;;-0.26;100.00;97707.94;5014605;28;20599;-61
2022/12/18 05:53:42;;;;;;;34.10;24.77;;;;;;;-0.22;100.00;97703.50;5008866;28;20947;-60
2022/12/18 05:56:11;;;;;;;33.17;25.33;;;;;;;-0.23;100.00;97701.78;5008743;28;20210;-60
2022/12/18 05:58:37;;;;;;;33.67;24.33;;;;;;;-0.14;100.00;97702.31;5013674;28;20222;-60
2022/12/18 06:01:13;;;;;;;33.80;24.67;;;;;;;-0.15;100.00;97703.22;5011672;28;20220;-61
2022/12/18 06:03:40;;;;;;;30.80;23.00;;;;;;;-0.15;100.00;97700.63;5006691;28;20205;-59
2022/12/18 06:06:14;;;;;;;33.23;25.03;;;;;;;-0.16;100.00;97708.47;5003565;28;20201;-60
2022/12/18 06:08:40;;;;;;;35.90;25.63;;;;;;;-0.18;100.00;97700.72;5004535;28;20202;-63
2022/12/18 06:11:07;;;;;;;33.37;25.53;;;;;;;-0.20;100.00;97712.94;5003748;28;20261;-61
2022/12/18 06:13:33;;;;;;;34.47;25.20;;;;;;;-0.23;100.00;97717.38;5003497;28;20539;-61
2022/12/18 06:16:03;;;;;;;32.20;24.97;;;;;;;-0.17;100.00;97722.34;5004015;28;20722;-61
2022/12/18 06:18:31;;;;;;;34.87;25.30;;;;;;;-0.24;100.00;97724.31;5003485;28;20245;-60
2022/12/18 06:20:58;;;;;;;34.87;25.90;;;;;;;-0.24;100.00;97726.06;5003811;28;20238;-61
2022/12/18 06:23:24;;;;;;;32.40;24.00;;;;;;;-0.25;100.00;97727.81;5003879;28;20208;-60
2022/12/18 06:25:51;;;;;;;32.63;24.90;;;;;;;-0.18;100.00;97728.47;5002910;28;20213;-60
2022/12/18 06:28:17;;;;;;;34.47;24.87;;;;;;;-0.19;100.00;97731.97;5003516;28;20193;-60
2022/12/18 06:30:44;;;;;;;33.87;24.57;;;;;;;-0.13;100.00;97734.34;5003795;28;20292;-61
2022/12/18 06:33:11;;;;;;;33.43;25.33;;;;;;;-0.19;100.00;97738.03;5003439;28;20671;-60
2022/12/18 06:35:39;;;;;;;35.30;24.13;;;;;;;-0.20;100.00;97732.88;5003928;28;20209;-61
2022/12/18 06:38:05;;;;;;;34.00;24.97;;;;;;;-0.18;100.00;97731.91;5004687;28;20221;-60
2022/12/18 06:40:32;;;;;;;34.40;25.50;;;;;;;-0.17;100.00;97733.63;5004425;28;20205;-60
2022/12/18 06:42:59;;;;;;;33.70;25.27;;;;;;;-0.19;100.00;97740.63;5005153;28;20248;-60
2022/12/18 06:45:25;;;;;;;31.57;23.73;;;;;;;-0.14;100.00;97745.66;5023026;28;20183;-61
2022/12/18 06:47:51;;;;;;;33.00;24.53;;;;;;;-0.11;100.00;97746.41;5025553;28;21199;-60
2022/12/18 06:50:18;;;;;;;33.80;26.23;;;;;;;-0.10;100.00;97749.84;5026098;28;20218;-61
2022/12/18 06:52:46;;;;;;;35.67;25.70;;;;;;;-0.08;100.00;97753.28;5004225;28;20212;-61
2022/12/18 06:55:12;;;;;;;35.33;26.10;;;;;;;-0.09;100.00;97754.16;5003125;28;20203;-60
2022/12/18 06:57:39;;;;;;;36.27;26.30;;;;;;;-0.09;100.00;97757.63;5003323;28;20535;-60
2022/12/18 07:00:07;;;;;;;36.27;26.43;;;;;;;-0.03;100.00;97762.59;5003383;28;20214;-61
2022/12/18 07:02:34;;;;;;;35.23;25.83;;;;;;;-0.10;100.00;97761.09;5002589;28;20211;-60
2022/12/18 07:05:01;;;;;;;33.57;26.07;;;;;;;-0.10;100.00;97765.44;5003076;28;20209;-61
2022/12/18 07:07:27;;;;;;;36.97;26.30;;;;;;;-0.08;100.00;97769.72;5003392;28;20267;-61
2022/12/18 07:09:55;;;;;;;35.00;26.57;;;;;;;-0.04;100.00;97763.50;5008748;28;20197;-61
2022/12/18 07:12:21;;;;;;;36.03;25.57;;;;;;;0.01;100.00;97773.75;5025970;28;20185;-61
2022/12/18 07:14:48;;;;;;;35.57;27.00;;;;;;;-0.06;100.00;97775.72;5026337;28;20203;-61
2022/12/18 07:17:14;;;;;;;37.13;25.93;;;;;;;-0.05;100.00;97784.38;5031243;28;20204;-61
2022/12/18 07:19:41;;;;;;;36.77;27.33;;;;;;;-0.08;100.00;97789.66;5014191;28;20237;-62
2022/12/18 07:22:08;;;;;;;37.43;26.73;;;;;;;0.02;100.00;97785.84;5004951;28;20233;-62
2022/12/18 07:24:34;;;;;;;35.20;25.80;;;;;;;0.05;100.00;97796.16;5003084;28;20208;-60
2022/12/18 07:27:02;;;;;;;37.57;26.33;;;;;;;-0.03;100.00;97799.00;5003049;28;20219;-61
2022/12/18 07:29:29;;;;;;;37.70;26.43;;;;;;;-0.06;100.00;97799.09;5003188;28;20198;-61
2022/12/18 07:31:56;;;;;;;32.63;24.90;;;;;;;-0.04;100.00;97797.28;5002862;28;20214;-61
2022/12/18 07:34:23;;;;;;;35.77;25.60;;;;;;;-0.07;100.00;97797.41;5002805;28;20546;-60
2022/12/18 07:36:49;;;;;;;38.13;25.67;;;;;;;-0.12;100.00;97799.31;5002013;28;20210;-61
2022/12/18 07:39:16;;;;;;;33.60;25.20;;;;;;;-0.13;100.00;97802.81;5002219;28;20238;-61
2022/12/18 07:41:45;;;;;;;35.77;25.67;;;;;;;-0.16;100.00;97800.31;5003046;28;20215;-61
2022/12/18 07:44:13;;;;;;;33.97;25.87;;;;;;;-0.12;100.00;97806.25;4995726;28;20249;-61
2022/12/18 07:46:40;;;;;;;36.27;25.47;;;;;;;-0.09;100.00;97804.41;4992767;28;20214;-61
2022/12/18 07:49:06;;;;;;;37.73;27.03;;;;;;;-0.05;100.00;97810.34;4992982;28;20212;-62
2022/12/18 07:51:33;;;;;;;35.40;25.63;;;;;;;0.10;100.00;97811.63;4992525;28;20231;-61
2022/12/18 07:53:59;;;;;;;36.10;25.67;;;;;;;0.10;100.00;97809.88;4992342;28;20350;-62
2022/12/18 07:56:30;;;;;;;38.73;26.33;;;;;;;0.10;100.00;97817.66;4992231;28;20645;-61
2022/12/18 07:58:57;;;;;;;36.53;26.33;;;;;;;0.10;100.00;97814.22;4992077;28;20261;-61
2022/12/18 08:01:26;;;;;;;35.30;26.50;;;;;;;0.09;100.00;97823.75;4992566;28;20207;-61
2022/12/18 08:03:53;;;;;;;33.27;24.90;;;;;;;0.13;100.00;97824.50;4992343;28;20207;-60
2022/12/18 08:06:19;;;;;;;35.73;26.20;;;;;;;0.10;100.00;97828.06;4992455;28;20550;-60
2022/12/18 08:08:46;;;;;;;34.07;24.97;;;;;;;0.20;100.00;97831.22;4992640;28;20202;-61
2022/12/18 08:11:12;;;;;;;35.37;24.83;;;;;;;0.23;100.00;97831.09;4992434;28;20204;-61
2022/12/18 08:13:38;;;;;;;37.33;26.70;;;;;;;0.19;100.00;97826.91;4992354;28;20220;-62
2022/12/18 08:16:07;;;;;;;36.97;25.57;;;;;;;0.22;100.00;97839.81;4992707;28;20218;-61
2022/12/18 08:18:36;;;;;;;34.20;25.00;;;;;;;0.30;100.00;97832.59;4992231;28;20241;-61
2022/12/18 08:21:08;;;;;;;35.47;25.60;;;;;;;0.30;100.00;97837.81;4992390;28;20209;-61
2022/12/18 08:23:35;;;;;;;34.77;25.10;;;;;;;0.22;100.00;97834.59;4992028;28;20207;-61
2022/12/18 08:26:01;;;;;;;35.63;25.57;;;;;;;0.14;100.00;97836.63;4991906;28;20289;-60
2022/12/18 08:28:28;;;;;;;35.37;25.23;;;;;;;0.14;100.00;97841.81;4992970;28;20216;-61
2022/12/18 08:30:54;;;;;;;38.20;26.20;;;;;;;0.15;100.00;97848.69;4992567;28;20214;-61
2022/12/18 08:33:21;;;;;;;36.67;26.07;;;;;;;0.14;100.00;97841.81;4992472;28;20206;-61
2022/12/18 08:35:49;;;;;;;36.73;25.20;;;;;;;0.14;100.00;97841.81;4992710;28;20206;-61
2022/12/18 08:38:15;;;;;;;36.50;25.37;;;;;;;0.20;100.00;97844.22;4992763;28;20210;-62
2022/12/18 08:40:42;;;;;;;38.33;26.23;;;;;;;0.19;100.00;97845.09;4993116;28;20218;-61
2022/12/18 08:45:54;;;;;;;34.03;24.90;;;;;;;0.25;100.00;97839.72;5008620;28;20526;-63
2022/12/18 08:48:21;;;;;;;34.87;25.30;;;;;;;0.28;100.00;97837.88;5014546;28;20211;-61
2022/12/18 08:50:55;;;;;;;39.23;26.40;;;;;;;0.21;100.00;97843.31;5020834;28;20211;-61
2022/12/18 08:53:22;;;;;;;35.87;25.63;;;;;;;0.18;100.00;97849.44;5014507;28;20203;-61
2022/12/18 08:55:48;;;;;;;37.03;25.43;;;;;;;0.20;100.00;97841.63;5009702;28;20214;-61
2022/12/18 08:58:17;;;;;;;35.07;25.40;;;;;;;0.35;100.00;97844.56;5009900;28;20205;-61
2022/12/18 09:00:44;;;;;;;36.57;25.23;;;;;;;0.35;100.00;97830.69;5006273;28;20515;-61
2022/12/18 09:03:12;;;;;;;34.97;24.23;;;;;;;0.42;100.00;97827.84;5004343;28;20528;-60
2022/12/18 09:05:39;;;;;;;34.90;24.70;;;;;;;0.53;100.00;97830.06;5003922;28;20208;-60
2022/12/18 09:08:06;;;;;;;36.77;25.07;;;;;;;0.50;99.32;97819.75;5003062;28;20219;-61
2022/12/18 09:10:33;;;;;;;36.23;24.67;;;;;;;0.50;100.00;97819.75;5002584;28;20204;-61
2022/12/18 09:12:59;;;;;;;35.73;24.50;;;;;;;0.48;99.67;97824.16;5002846;28;20537;-61
2022/12/18 09:15:26;;;;;;;35.50;25.00;;;;;;;0.57;100.00;97818.63;5002166;28;20212;-61
2022/12/18 09:17:53;;;;;;;37.60;24.90;;;;;;;0.48;99.63;97825.03;5002123;28;20631;-61
2022/12/18 09:20:20;;;;;;;32.67;24.37;;;;;;;0.43;100.00;97821.72;5002628;28;20231;-61
2022/12/18 09:22:46;;;;;;;35.33;23.57;;;;;;;0.42;100.00;97814.84;5001872;28;20657;-62
2022/12/18 09:25:14;;;;;;;39.67;27.50;;;;;;;0.45;100.00;97809.53;5002107;28;20207;-60
2022/12/18 09:27:41;;;;;;;33.57;24.97;;;;;;;0.47;100.00;97815.50;5001741;28;20215;-62
2022/12/18 09:30:08;;;;;;;33.60;25.00;;;;;;;0.46;100.00;97813.81;5002069;28;20214;-60
2022/12/18 09:32:35;;;;;;;33.73;24.70;;;;;;;0.34;100.00;97829.84;5001903;28;20211;-61
2022/12/18 09:35:01;;;;;;;34.33;24.73;;;;;;;0.39;100.00;97829.69;5001458;28;20214;-62
2022/12/18 09:37:28;;;;;;;35.70;24.67;;;;;;;0.46;100.00;97831.19;5005292;28;20219;-60
2022/12/18 09:39:56;;;;;;;37.57;26.37;;;;;;;0.46;100.00;97826.00;5005055;28;20233;-60
2022/12/18 09:42:24;;;;;;;33.37;23.17;;;;;;;0.51;100.00;97826.66;5005603;28;20227;-60
2022/12/18 09:44:52;;;;;;;33.90;24.07;;;;;;;0.54;100.00;97826.56;5004869;28;20252;-60
2022/12/18 09:47:23;;;;;;;37.63;25.17;;;;;;;0.50;100.00;97825.81;5005138;28;20649;-61
2022/12/18 09:49:51;;;;;;;35.50;24.90;;;;;;;0.48;99.73;97821.56;5005737;28;20286;-60
2022/12/18 09:52:20;;;;;;;33.37;24.60;;;;;;;0.55;100.00;97828.25;5005111;28;20225;-60
2022/12/18 09:54:51;;;;;;;34.90;23.70;;;;;;;0.56;100.00;97822.16;5005286;28;20208;-61
2022/12/18 09:57:20;;;;;;;33.27;23.27;;;;;;;0.63;100.00;97818.44;5006060;28;20330;-60
2022/12/18 09:59:52;;;;;;;34.47;23.60;;;;;;;0.61;100.00;97825.44;5007269;28;20227;-61
2022/12/18 10:02:22;;;;;;;35.97;24.03;;;;;;;0.62;100.00;97824.53;5006568;28;20208;-61
2022/12/18 10:04:56;;;;;;;33.00;22.90;;;;;;;0.60;100.00;97826.34;5005877;28;20247;-60
2022/12/18 10:07:28;;;;;;;33.97;23.77;;;;;;;0.51;100.00;97826.66;5005249;28;20210;-61
2022/12/18 10:10:00;;;;;;;33.47;23.63;;;;;;;0.60;100.00;97830.72;5005588;28;20266;-60
2022/12/18 10:12:34;;;;;;;33.50;23.30;;;;;;;0.62;100.00;97834.94;5006625;28;20549;-61
2022/12/18 10:15:07;;;;;;;32.90;23.03;;;;;;;0.74;99.63;97836.28;5005788;28;20212;-61
2022/12/18 10:17:38;;;;;;;33.27;22.83;;;;;;;0.64;99.51;97838.34;5006529;28;20227;-60
2022/12/18 10:20:13;;;;;;;34.10;23.97;;;;;;;0.53;100.00;97840.50;5004919;28;20276;-61
2022/12/18 10:22:45;;;;;;;31.13;22.53;;;;;;;0.66;98.61;97840.91;5005764;28;20660;-60
2022/12/18 10:25:20;;;;;;;34.53;23.73;;;;;;;0.67;100.00;97843.47;5005800;28;20208;-60
2022/12/18 10:27:47;;;;;;;34.83;23.50;;;;;;;0.61;98.96;97840.19;5006352;28;20600;-60
2022/12/18 10:30:18;;;;;;;34.30;23.07;;;;;;;0.61;98.29;97846.25;5009380;28;20211;-61
2022/12/18 10:32:45;;;;;;;32.47;22.17;;;;;;;0.57;98.78;97846.44;5006236;28;20549;-60
2022/12/18 10:35:16;;;;;;;32.97;22.70;;;;;;;0.62;98.65;97849.72;5004492;28;20209;-60
2022/12/18 10:38:01;;;;;;;31.40;22.23;;;;;;;0.57;100.00;97841.22;5003950;28;20206;-61
2022/12/18 10:40:28;;;;;;;31.47;22.33;;;;;;;0.66;99.14;97840.91;5003314;28;20229;-61
2022/12/18 10:43:05;;;;;;;32.60;22.40;;;;;;;0.56;100.00;97835.19;5002213;28;20275;-61
2022/12/18 10:45:33;;;;;;;32.43;22.47;;;;;;;0.63;100.00;97841.88;4995257;28;20205;-60
2022/12/18 10:48:00;;;;;;;32.63;22.03;;;;;;;0.60;100.00;97839.38;4993235;28;20531;-61
2022/12/18 10:50:28;;;;;;;34.87;21.53;;;;;;;0.63;100.00;97835.81;4995220;28;20204;-60
2022/12/18 10:52:56;;;;;;;32.20;21.93;;;;;;;0.58;100.00;97846.38;4993979;28;20212;-61
2022/12/18 10:55:23;;;;;;;31.03;21.37;;;;;;;0.65;100.00;97847.84;4993053;28;20205;-60
2022/12/18 10:57:49;;;;;;;33.03;22.17;;;;;;;0.67;100.00;97846.06;4993330;28;20732;-60
2022/12/18 11:00:24;;;;;;;33.77;22.80;;;;;;;0.72;100.00;97845.88;4993852;28;20231;-60
2022/12/18 11:02:53;;;;;;;39.70;28.27;;;;;;;0.78;100.00;97851.72;4993867;28;20264;-61
2022/12/18 11:05:29;;;;;;;37.50;25.13;;;;;;;0.83;100.00;97852.41;4993745;28;20230;-60
2022/12/18 11:07:56;;;;;;;33.37;22.63;;;;;;;0.86;100.00;97857.50;4994104;28;20280;-60
2022/12/18 11:10:27;;;;;;;30.93;22.57;;;;;;;0.93;100.00;97835.56;4993093;28;20222;-61
2022/12/18 11:12:55;;;;;;;33.43;22.60;;;;;;;0.84;99.31;97835.91;4994055;28;20258;-60
2022/12/18 11:15:23;;;;;;;32.70;22.83;;;;;;;0.69;100.00;97831.22;4993336;28;20210;-60
2022/12/18 11:17:53;;;;;;;31.67;21.63;;;;;;;0.79;99.28;97831.75;5007688;28;20211;-60
2022/12/18 11:20:28;;;;;;;33.37;22.37;;;;;;;0.80;100.00;97821.28;4993457;28;20357;-60